sensor_id;sensor_type;location;lat;lon;timestamp;P1;durP1;ratioP1;P2;durP2;ratioP2
61806;SDS011;47726;52.766;6.606;2023-02-28T00:01:10;19.88;;;8.50;;
61806;SDS011;47726;52.766;6.606;2023-02-28T00:03:37;15.68;;;8.00;;
61806;SDS011;47726;52.766;6.606;2023-02-28T00:06:03;17.70;;;8.27;;
61806;SDS011;47726;52.766;6.606;2023-02-28T00:08:32;15.18;;;7.20;;
61806;SDS011;47726;52.766;6.606;2023-02-28T00:11:05;17.58;;;8.25;;
61806;SDS011;47726;52.766;6.606;2023-02-28T00:13:36;14.70;;;7.60;;
61806;SDS011;47726;52.766;6.606;2023-02-28T00:16:27;14.27;;;7.43;;
61806;SDS011;47726;52.766;6.606;2023-02-28T00:18:52;15.00;;;7.75;;
61806;SDS011;47726;52.766;6.606;2023-02-28T00:21:18;16.65;;;8.70;;
61806;SDS011;47726;52.766;6.606;2023-02-28T00:23:44;15.48;;;7.75;;
61806;SDS011;47726;52.766;6.606;2023-02-28T00:26:09;13.63;;;6.97;;
61806;SDS011;47726;52.766;6.606;2023-02-28T00:28:35;12.73;;;6.90;;
61806;SDS011;47726;52.766;6.606;2023-02-28T00:31:01;16.42;;;7.25;;
61806;SDS011;47726;52.766;6.606;2023-02-28T00:33:27;14.27;;;6.28;;
61806;SDS011;47726;52.766;6.606;2023-02-28T00:36:00;13.43;;;6.25;;
61806;SDS011;47726;52.766;6.606;2023-02-28T00:38:33;13.95;;;6.40;;
61806;SDS011;47726;52.766;6.606;2023-02-28T00:40:59;14.40;;;7.15;;
61806;SDS011;47726;52.766;6.606;2023-02-28T00:43:29;16.17;;;7.35;;
61806;SDS011;47726;52.766;6.606;2023-02-28T00:45:55;17.45;;;8.32;;
61806;SDS011;47726;52.766;6.606;2023-02-28T00:48:21;15.82;;;7.55;;
61806;SDS011;47726;52.766;6.606;2023-02-28T00:50:48;14.82;;;7.20;;
61806;SDS011;47726;52.766;6.606;2023-02-28T00:53:14;14.13;;;6.60;;
61806;SDS011;47726;52.766;6.606;2023-02-28T00:55:40;14.15;;;6.25;;
61806;SDS011;47726;52.766;6.606;2023-02-28T00:58:05;16.92;;;7.25;;
61806;SDS011;47726;52.766;6.606;2023-02-28T01:00:31;21.00;;;8.65;;
61806;SDS011;47726;52.766;6.606;2023-02-28T01:02:57;21.42;;;9.90;;
61806;SDS011;47726;52.766;6.606;2023-02-28T01:05:22;18.30;;;8.40;;
61806;SDS011;47726;52.766;6.606;2023-02-28T01:07:48;20.52;;;8.00;;
61806;SDS011;47726;52.766;6.606;2023-02-28T01:10:14;17.83;;;7.45;;
61806;SDS011;47726;52.766;6.606;2023-02-28T01:12:40;14.07;;;6.80;;
61806;SDS011;47726;52.766;6.606;2023-02-28T01:15:05;14.90;;;6.70;;
61806;SDS011;47726;52.766;6.606;2023-02-28T01:17:31;14.02;;;6.28;;
61806;SDS011;47726;52.766;6.606;2023-02-28T01:19:57;11.35;;;5.95;;
61806;SDS011;47726;52.766;6.606;2023-02-28T01:22:22;11.77;;;5.53;;
61806;SDS011;47726;52.766;6.606;2023-02-28T01:24:48;12.23;;;5.30;;
61806;SDS011;47726;52.766;6.606;2023-02-28T01:27:14;10.48;;;5.38;;
61806;SDS011;47726;52.766;6.606;2023-02-28T01:29:39;9.13;;;4.65;;
61806;SDS011;47726;52.766;6.606;2023-02-28T01:32:05;10.68;;;4.82;;
61806;SDS011;47726;52.766;6.606;2023-02-28T01:34:30;8.23;;;4.88;;
61806;SDS011;47726;52.766;6.606;2023-02-28T01:36:56;12.77;;;5.40;;
61806;SDS011;47726;52.766;6.606;2023-02-28T01:39:23;13.57;;;5.93;;
61806;SDS011;47726;52.766;6.606;2023-02-28T01:41:50;11.02;;;5.63;;
61806;SDS011;47726;52.766;6.606;2023-02-28T01:47:18;9.82;;;5.43;;
61806;SDS011;47726;52.766;6.606;2023-02-28T01:49:45;11.15;;;5.55;;
61806;SDS011;47726;52.766;6.606;2023-02-28T01:52:11;10.52;;;5.15;;
61806;SDS011;47726;52.766;6.606;2023-02-28T01:54:43;10.05;;;5.32;;
61806;SDS011;47726;52.766;6.606;2023-02-28T01:57:14;9.07;;;5.00;;
61806;SDS011;47726;52.766;6.606;2023-02-28T01:59:46;10.27;;;5.25;;
61806;SDS011;47726;52.766;6.606;2023-02-28T02:02:17;12.23;;;5.60;;
61806;SDS011;47726;52.766;6.606;2023-02-28T02:04:46;8.38;;;4.90;;
61806;SDS011;47726;52.766;6.606;2023-02-28T02:07:26;12.98;;;5.03;;
61806;SDS011;47726;52.766;6.606;2023-02-28T02:09:59;9.35;;;4.45;;
61806;SDS011;47726;52.766;6.606;2023-02-28T02:13:10;8.05;;;4.85;;
61806;SDS011;47726;52.766;6.606;2023-02-28T02:15:25;9.07;;;4.93;;
61806;SDS011;47726;52.766;6.606;2023-02-28T02:32:35;9.77;;;5.07;;
61806;SDS011;47726;52.766;6.606;2023-02-28T02:38:35;10.82;;;5.90;;
61806;SDS011;47726;52.766;6.606;2023-02-28T02:41:45;12.05;;;6.43;;
61806;SDS011;47726;52.766;6.606;2023-02-28T02:44:22;11.32;;;6.43;;
61806;SDS011;47726;52.766;6.606;2023-02-28T02:46:57;12.18;;;6.63;;
61806;SDS011;47726;52.766;6.606;2023-02-28T02:49:35;12.10;;;7.32;;
61806;SDS011;47726;52.766;6.606;2023-02-28T02:52:03;11.68;;;7.00;;
61806;SDS011;47726;52.766;6.606;2023-02-28T02:54:33;12.07;;;8.02;;
61806;SDS011;47726;52.766;6.606;2023-02-28T02:57:03;12.05;;;7.30;;
61806;SDS011;47726;52.766;6.606;2023-02-28T02:59:38;12.55;;;7.68;;
61806;SDS011;47726;52.766;6.606;2023-02-28T03:02:06;11.27;;;7.80;;
61806;SDS011;47726;52.766;6.606;2023-02-28T03:04:38;12.45;;;8.30;;
61806;SDS011;47726;52.766;6.606;2023-02-28T03:07:08;12.27;;;8.30;;
61806;SDS011;47726;52.766;6.606;2023-02-28T03:09:34;13.40;;;7.88;;
61806;SDS011;47726;52.766;6.606;2023-02-28T03:12:03;13.27;;;8.10;;
61806;SDS011;47726;52.766;6.606;2023-02-28T03:17:40;14.15;;;8.68;;
61806;SDS011;47726;52.766;6.606;2023-02-28T03:22:57;12.50;;;8.48;;
61806;SDS011;47726;52.766;6.606;2023-02-28T03:33:25;13.52;;;8.88;;
61806;SDS011;47726;52.766;6.606;2023-02-28T03:36:02;13.13;;;8.07;;
61806;SDS011;47726;52.766;6.606;2023-02-28T03:38:34;14.15;;;8.63;;
61806;SDS011;47726;52.766;6.606;2023-02-28T03:41:23;13.60;;;8.82;;
61806;SDS011;47726;52.766;6.606;2023-02-28T03:44:04;11.90;;;8.57;;
61806;SDS011;47726;52.766;6.606;2023-02-28T03:46:36;13.57;;;8.85;;
61806;SDS011;47726;52.766;6.606;2023-02-28T03:49:12;14.75;;;9.27;;
61806;SDS011;47726;52.766;6.606;2023-02-28T03:51:45;12.65;;;9.00;;
61806;SDS011;47726;52.766;6.606;2023-02-28T03:54:15;15.27;;;9.18;;
61806;SDS011;47726;52.766;6.606;2023-02-28T03:56:54;14.80;;;9.23;;
61806;SDS011;47726;52.766;6.606;2023-02-28T03:59:32;14.25;;;9.00;;
61806;SDS011;47726;52.766;6.606;2023-02-28T04:02:02;16.30;;;9.05;;
61806;SDS011;47726;52.766;6.606;2023-02-28T04:04:28;15.23;;;9.00;;
61806;SDS011;47726;52.766;6.606;2023-02-28T04:06:59;14.25;;;9.85;;
61806;SDS011;47726;52.766;6.606;2023-02-28T04:09:28;15.35;;;9.20;;
61806;SDS011;47726;52.766;6.606;2023-02-28T04:11:53;16.08;;;9.50;;
61806;SDS011;47726;52.766;6.606;2023-02-28T04:14:23;17.17;;;9.70;;
61806;SDS011;47726;52.766;6.606;2023-02-28T04:16:49;12.85;;;9.25;;
61806;SDS011;47726;52.766;6.606;2023-02-28T04:19:15;14.15;;;9.80;;
61806;SDS011;47726;52.766;6.606;2023-02-28T04:21:42;14.73;;;9.77;;
61806;SDS011;47726;52.766;6.606;2023-02-28T04:24:11;16.75;;;10.48;;
61806;SDS011;47726;52.766;6.606;2023-02-28T04:26:42;18.85;;;9.63;;
61806;SDS011;47726;52.766;6.606;2023-02-28T04:29:11;14.75;;;9.70;;
61806;SDS011;47726;52.766;6.606;2023-02-28T04:31:38;14.00;;;9.50;;
61806;SDS011;47726;52.766;6.606;2023-02-28T04:34:04;14.65;;;9.80;;
61806;SDS011;47726;52.766;6.606;2023-02-28T04:36:30;14.57;;;9.20;;
61806;SDS011;47726;52.766;6.606;2023-02-28T04:38:55;14.13;;;10.18;;
61806;SDS011;47726;52.766;6.606;2023-02-28T04:41:21;15.15;;;9.82;;
61806;SDS011;47726;52.766;6.606;2023-02-28T04:43:48;15.77;;;10.00;;
61806;SDS011;47726;52.766;6.606;2023-02-28T04:46:13;12.75;;;9.35;;
61806;SDS011;47726;52.766;6.606;2023-02-28T04:48:39;14.23;;;9.40;;
61806;SDS011;47726;52.766;6.606;2023-02-28T04:51:06;15.27;;;9.82;;
61806;SDS011;47726;52.766;6.606;2023-02-28T04:53:33;16.27;;;10.60;;
61806;SDS011;47726;52.766;6.606;2023-02-28T04:56:00;17.83;;;10.40;;
61806;SDS011;47726;52.766;6.606;2023-02-28T04:58:26;15.68;;;10.45;;
61806;SDS011;47726;52.766;6.606;2023-02-28T05:00:53;14.32;;;10.00;;
61806;SDS011;47726;52.766;6.606;2023-02-28T05:03:20;17.45;;;10.98;;
61806;SDS011;47726;52.766;6.606;2023-02-28T05:05:47;15.00;;;10.48;;
61806;SDS011;47726;52.766;6.606;2023-02-28T05:08:12;16.58;;;10.50;;
61806;SDS011;47726;52.766;6.606;2023-02-28T05:10:38;17.58;;;10.52;;
61806;SDS011;47726;52.766;6.606;2023-02-28T05:13:04;17.50;;;10.57;;
61806;SDS011;47726;52.766;6.606;2023-02-28T05:15:29;14.75;;;10.27;;
61806;SDS011;47726;52.766;6.606;2023-02-28T05:17:55;14.70;;;9.15;;
61806;SDS011;47726;52.766;6.606;2023-02-28T05:20:21;14.90;;;9.57;;
61806;SDS011;47726;52.766;6.606;2023-02-28T05:22:46;16.35;;;10.63;;
61806;SDS011;47726;52.766;6.606;2023-02-28T05:25:19;13.93;;;9.52;;
61806;SDS011;47726;52.766;6.606;2023-02-28T05:27:47;16.73;;;10.35;;
61806;SDS011;47726;52.766;6.606;2023-02-28T05:30:13;14.80;;;10.15;;
61806;SDS011;47726;52.766;6.606;2023-02-28T05:32:39;16.05;;;10.48;;
61806;SDS011;47726;52.766;6.606;2023-02-28T05:35:09;15.25;;;10.02;;
61806;SDS011;47726;52.766;6.606;2023-02-28T05:37:35;15.45;;;10.48;;
61806;SDS011;47726;52.766;6.606;2023-02-28T05:40:01;15.30;;;10.13;;
61806;SDS011;47726;52.766;6.606;2023-02-28T05:42:30;14.18;;;9.70;;
61806;SDS011;47726;52.766;6.606;2023-02-28T05:44:56;18.38;;;11.07;;
61806;SDS011;47726;52.766;6.606;2023-02-28T05:47:22;13.90;;;9.82;;
61806;SDS011;47726;52.766;6.606;2023-02-28T05:49:47;15.82;;;10.80;;
61806;SDS011;47726;52.766;6.606;2023-02-28T05:52:13;16.77;;;10.73;;
61806;SDS011;47726;52.766;6.606;2023-02-28T05:54:38;14.98;;;10.88;;
61806;SDS011;47726;52.766;6.606;2023-02-28T05:57:04;16.33;;;10.73;;
61806;SDS011;47726;52.766;6.606;2023-02-28T05:59:30;15.48;;;10.43;;
61806;SDS011;47726;52.766;6.606;2023-02-28T06:01:55;16.10;;;10.90;;
61806;SDS011;47726;52.766;6.606;2023-02-28T06:04:21;18.00;;;11.18;;
61806;SDS011;47726;52.766;6.606;2023-02-28T06:06:47;16.92;;;11.45;;
61806;SDS011;47726;52.766;6.606;2023-02-28T06:09:13;15.52;;;10.95;;
61806;SDS011;47726;52.766;6.606;2023-02-28T06:11:39;16.98;;;11.23;;
61806;SDS011;47726;52.766;6.606;2023-02-28T06:14:05;15.45;;;11.07;;
61806;SDS011;47726;52.766;6.606;2023-02-28T06:16:32;15.30;;;11.20;;
61806;SDS011;47726;52.766;6.606;2023-02-28T06:18:59;17.58;;;11.07;;
61806;SDS011;47726;52.766;6.606;2023-02-28T06:21:26;18.08;;;11.88;;
61806;SDS011;47726;52.766;6.606;2023-02-28T06:23:53;16.10;;;10.75;;
61806;SDS011;47726;52.766;6.606;2023-02-28T06:26:19;17.65;;;11.50;;
61806;SDS011;47726;52.766;6.606;2023-02-28T06:28:45;20.92;;;12.00;;
61806;SDS011;47726;52.766;6.606;2023-02-28T06:31:12;18.15;;;11.20;;
61806;SDS011;47726;52.766;6.606;2023-02-28T06:33:40;15.45;;;11.35;;
61806;SDS011;47726;52.766;6.606;2023-02-28T06:36:06;17.75;;;11.45;;
61806;SDS011;47726;52.766;6.606;2023-02-28T06:38:33;18.02;;;11.27;;
61806;SDS011;47726;52.766;6.606;2023-02-28T06:40:59;19.30;;;11.95;;
61806;SDS011;47726;52.766;6.606;2023-02-28T06:43:27;17.60;;;11.38;;
61806;SDS011;47726;52.766;6.606;2023-02-28T06:45:55;17.17;;;11.27;;
61806;SDS011;47726;52.766;6.606;2023-02-28T06:48:22;17.95;;;12.40;;
61806;SDS011;47726;52.766;6.606;2023-02-28T06:50:48;17.83;;;11.48;;
61806;SDS011;47726;52.766;6.606;2023-02-28T06:53:13;18.95;;;12.48;;
61806;SDS011;47726;52.766;6.606;2023-02-28T06:55:39;18.75;;;12.05;;
61806;SDS011;47726;52.766;6.606;2023-02-28T06:58:06;19.30;;;12.85;;
61806;SDS011;47726;52.766;6.606;2023-02-28T07:00:50;20.85;;;14.25;;
61806;SDS011;47726;52.766;6.606;2023-02-28T07:03:17;21.38;;;13.35;;
61806;SDS011;47726;52.766;6.606;2023-02-28T07:05:44;20.73;;;14.10;;
61806;SDS011;47726;52.766;6.606;2023-02-28T07:08:10;19.73;;;13.70;;
61806;SDS011;47726;52.766;6.606;2023-02-28T07:10:39;20.45;;;13.48;;
61806;SDS011;47726;52.766;6.606;2023-02-28T07:13:11;19.92;;;13.13;;
61806;SDS011;47726;52.766;6.606;2023-02-28T07:15:37;19.70;;;12.52;;
61806;SDS011;47726;52.766;6.606;2023-02-28T07:18:03;19.15;;;12.68;;
61806;SDS011;47726;52.766;6.606;2023-02-28T07:20:29;21.95;;;13.45;;
61806;SDS011;47726;52.766;6.606;2023-02-28T07:22:58;21.67;;;13.90;;
61806;SDS011;47726;52.766;6.606;2023-02-28T07:25:23;21.45;;;13.35;;
61806;SDS011;47726;52.766;6.606;2023-02-28T07:27:50;20.00;;;13.07;;
61806;SDS011;47726;52.766;6.606;2023-02-28T07:30:16;23.02;;;13.52;;
61806;SDS011;47726;52.766;6.606;2023-02-28T07:32:42;19.63;;;12.75;;
61806;SDS011;47726;52.766;6.606;2023-02-28T07:35:08;20.67;;;13.35;;
61806;SDS011;47726;52.766;6.606;2023-02-28T07:37:34;19.70;;;13.77;;
61806;SDS011;47726;52.766;6.606;2023-02-28T07:40:03;22.55;;;13.70;;
61806;SDS011;47726;52.766;6.606;2023-02-28T07:42:34;19.92;;;13.77;;
61806;SDS011;47726;52.766;6.606;2023-02-28T07:45:00;19.77;;;12.90;;
61806;SDS011;47726;52.766;6.606;2023-02-28T07:47:26;19.92;;;13.35;;
61806;SDS011;47726;52.766;6.606;2023-02-28T07:49:55;19.45;;;13.10;;
61806;SDS011;47726;52.766;6.606;2023-02-28T07:52:20;22.45;;;13.73;;
61806;SDS011;47726;52.766;6.606;2023-02-28T07:54:48;21.13;;;13.35;;
61806;SDS011;47726;52.766;6.606;2023-02-28T07:57:14;24.65;;;14.32;;
61806;SDS011;47726;52.766;6.606;2023-02-28T07:59:39;21.58;;;13.55;;
61806;SDS011;47726;52.766;6.606;2023-02-28T08:02:05;20.40;;;13.50;;
61806;SDS011;47726;52.766;6.606;2023-02-28T08:04:31;21.40;;;13.68;;
61806;SDS011;47726;52.766;6.606;2023-02-28T08:06:57;20.52;;;13.45;;
61806;SDS011;47726;52.766;6.606;2023-02-28T08:09:23;21.33;;;13.35;;
61806;SDS011;47726;52.766;6.606;2023-02-28T08:11:49;23.13;;;14.25;;
61806;SDS011;47726;52.766;6.606;2023-02-28T08:14:15;19.77;;;13.35;;
61806;SDS011;47726;52.766;6.606;2023-02-28T08:16:40;18.92;;;12.38;;
61806;SDS011;47726;52.766;6.606;2023-02-28T08:19:09;19.33;;;12.40;;
61806;SDS011;47726;52.766;6.606;2023-02-28T08:21:34;16.63;;;11.65;;
61806;SDS011;47726;52.766;6.606;2023-02-28T08:24:00;17.90;;;11.93;;
61806;SDS011;47726;52.766;6.606;2023-02-28T08:26:25;17.33;;;11.50;;
61806;SDS011;47726;52.766;6.606;2023-02-28T08:28:51;18.00;;;10.93;;
61806;SDS011;47726;52.766;6.606;2023-02-28T08:31:17;14.85;;;9.10;;
61806;SDS011;47726;52.766;6.606;2023-02-28T08:33:43;15.75;;;8.00;;
61806;SDS011;47726;52.766;6.606;2023-02-28T08:36:14;13.98;;;8.57;;
61806;SDS011;47726;52.766;6.606;2023-02-28T08:38:40;12.38;;;7.88;;
61806;SDS011;47726;52.766;6.606;2023-02-28T08:41:07;12.27;;;7.60;;
61806;SDS011;47726;52.766;6.606;2023-02-28T08:43:35;12.13;;;7.20;;
61806;SDS011;47726;52.766;6.606;2023-02-28T08:46:01;11.60;;;7.60;;
61806;SDS011;47726;52.766;6.606;2023-02-28T08:48:27;13.70;;;7.68;;
61806;SDS011;47726;52.766;6.606;2023-02-28T08:50:55;13.13;;;7.65;;
61806;SDS011;47726;52.766;6.606;2023-02-28T08:53:25;11.65;;;7.75;;
61806;SDS011;47726;52.766;6.606;2023-02-28T08:55:57;10.52;;;6.80;;
61806;SDS011;47726;52.766;6.606;2023-02-28T08:58:30;10.30;;;6.68;;
61806;SDS011;47726;52.766;6.606;2023-02-28T09:00:55;10.00;;;6.75;;
61806;SDS011;47726;52.766;6.606;2023-02-28T09:03:21;10.30;;;6.65;;
61806;SDS011;47726;52.766;6.606;2023-02-28T09:08:20;8.23;;;5.07;;
61806;SDS011;47726;52.766;6.606;2023-02-28T09:10:46;8.98;;;5.07;;
61806;SDS011;47726;52.766;6.606;2023-02-28T09:13:12;9.57;;;5.68;;
61806;SDS011;47726;52.766;6.606;2023-02-28T09:15:38;9.43;;;5.43;;
61806;SDS011;47726;52.766;6.606;2023-02-28T09:18:04;7.85;;;5.57;;
61806;SDS011;47726;52.766;6.606;2023-02-28T09:20:29;8.05;;;5.47;;
61806;SDS011;47726;52.766;6.606;2023-02-28T09:22:55;7.65;;;5.43;;
61806;SDS011;47726;52.766;6.606;2023-02-28T09:25:20;7.60;;;5.13;;
61806;SDS011;47726;52.766;6.606;2023-02-28T09:27:46;7.35;;;5.30;;
61806;SDS011;47726;52.766;6.606;2023-02-28T09:30:12;9.60;;;5.43;;
61806;SDS011;47726;52.766;6.606;2023-02-28T09:32:38;6.68;;;5.07;;
61806;SDS011;47726;52.766;6.606;2023-02-28T09:35:04;7.88;;;4.78;;
61806;SDS011;47726;52.766;6.606;2023-02-28T09:37:30;5.20;;;4.30;;
61806;SDS011;47726;52.766;6.606;2023-02-28T09:39:56;7.72;;;4.57;;
61806;SDS011;47726;52.766;6.606;2023-02-28T09:42:25;6.88;;;4.60;;
61806;SDS011;47726;52.766;6.606;2023-02-28T09:44:56;6.50;;;4.30;;
61806;SDS011;47726;52.766;6.606;2023-02-28T09:47:30;6.05;;;4.03;;
61806;SDS011;47726;52.766;6.606;2023-02-28T09:49:58;7.10;;;3.83;;
61806;SDS011;47726;52.766;6.606;2023-02-28T09:52:42;4.70;;;3.40;;
61806;SDS011;47726;52.766;6.606;2023-02-28T09:55:19;5.90;;;3.40;;
61806;SDS011;47726;52.766;6.606;2023-02-28T09:57:49;4.85;;;3.50;;
61806;SDS011;47726;52.766;6.606;2023-02-28T10:02:52;5.05;;;3.42;;
61806;SDS011;47726;52.766;6.606;2023-02-28T10:05:43;4.47;;;3.50;;
61806;SDS011;47726;52.766;6.606;2023-02-28T10:08:14;4.35;;;2.90;;
61806;SDS011;47726;52.766;6.606;2023-02-28T10:11:12;4.82;;;3.20;;
61806;SDS011;47726;52.766;6.606;2023-02-28T10:13:59;4.30;;;3.05;;
61806;SDS011;47726;52.766;6.606;2023-02-28T10:16:32;5.43;;;3.35;;
61806;SDS011;47726;52.766;6.606;2023-02-28T10:21:33;5.20;;;3.72;;
61806;SDS011;47726;52.766;6.606;2023-02-28T10:24:02;4.78;;;3.50;;
61806;SDS011;47726;52.766;6.606;2023-02-28T10:26:35;5.22;;;3.67;;
61806;SDS011;47726;52.766;6.606;2023-02-28T10:29:01;7.40;;;3.80;;
61806;SDS011;47726;52.766;6.606;2023-02-28T10:31:28;6.03;;;3.88;;
61806;SDS011;47726;52.766;6.606;2023-02-28T10:33:54;6.63;;;3.50;;
61806;SDS011;47726;52.766;6.606;2023-02-28T10:36:20;4.78;;;3.50;;
61806;SDS011;47726;52.766;6.606;2023-02-28T10:38:47;5.43;;;3.30;;
61806;SDS011;47726;52.766;6.606;2023-02-28T10:41:14;5.97;;;3.47;;
61806;SDS011;47726;52.766;6.606;2023-02-28T10:43:53;5.18;;;3.00;;
61806;SDS011;47726;52.766;6.606;2023-02-28T10:46:44;4.60;;;2.97;;
61806;SDS011;47726;52.766;6.606;2023-02-28T10:49:15;4.45;;;2.75;;
61806;SDS011;47726;52.766;6.606;2023-02-28T10:51:54;3.13;;;2.55;;
61806;SDS011;47726;52.766;6.606;2023-02-28T10:54:35;4.68;;;2.70;;
61806;SDS011;47726;52.766;6.606;2023-02-28T10:59:45;4.75;;;2.90;;
61806;SDS011;47726;52.766;6.606;2023-02-28T11:04:59;4.47;;;3.00;;
61806;SDS011;47726;52.766;6.606;2023-02-28T11:07:25;4.32;;;2.80;;
61806;SDS011;47726;52.766;6.606;2023-02-28T11:09:53;3.50;;;2.90;;
61806;SDS011;47726;52.766;6.606;2023-02-28T11:12:23;4.05;;;2.70;;
61806;SDS011;47726;52.766;6.606;2023-02-28T11:14:56;4.82;;;2.90;;
61806;SDS011;47726;52.766;6.606;2023-02-28T11:17:30;4.50;;;2.85;;
61806;SDS011;47726;52.766;6.606;2023-02-28T11:19:58;5.78;;;3.10;;
61806;SDS011;47726;52.766;6.606;2023-02-28T11:22:29;4.97;;;2.80;;
61806;SDS011;47726;52.766;6.606;2023-02-28T11:24:58;3.90;;;2.70;;
61806;SDS011;47726;52.766;6.606;2023-02-28T11:29:54;4.72;;;2.95;;
61806;SDS011;47726;52.766;6.606;2023-02-28T11:32:21;4.03;;;2.70;;
61806;SDS011;47726;52.766;6.606;2023-02-28T11:37:28;4.07;;;2.63;;
61806;SDS011;47726;52.766;6.606;2023-02-28T11:39:55;3.38;;;2.40;;
61806;SDS011;47726;52.766;6.606;2023-02-28T11:42:30;4.68;;;2.60;;
61806;SDS011;47726;52.766;6.606;2023-02-28T11:47:47;3.35;;;2.50;;
61806;SDS011;47726;52.766;6.606;2023-02-28T11:50:33;2.83;;;2.33;;
61806;SDS011;47726;52.766;6.606;2023-02-28T11:55:53;3.28;;;2.47;;
61806;SDS011;47726;52.766;6.606;2023-02-28T11:58:29;4.10;;;2.70;;
61806;SDS011;47726;52.766;6.606;2023-02-28T12:04:26;4.50;;;2.35;;
61806;SDS011;47726;52.766;6.606;2023-02-28T12:20:02;4.05;;;2.50;;
61806;SDS011;47726;52.766;6.606;2023-02-28T12:23:00;4.30;;;2.65;;
61806;SDS011;47726;52.766;6.606;2023-02-28T12:28:21;3.53;;;2.80;;
61806;SDS011;47726;52.766;6.606;2023-02-28T12:33:46;4.88;;;2.63;;
61806;SDS011;47726;52.766;6.606;2023-02-28T12:36:17;3.78;;;2.72;;
61806;SDS011;47726;52.766;6.606;2023-02-28T12:38:52;5.43;;;2.85;;
61806;SDS011;47726;52.766;6.606;2023-02-28T12:41:33;7.10;;;2.80;;
61806;SDS011;47726;52.766;6.606;2023-02-28T12:44:40;4.30;;;3.03;;
61806;SDS011;47726;52.766;6.606;2023-02-28T12:47:05;4.28;;;2.58;;
61806;SDS011;47726;52.766;6.606;2023-02-28T12:49:38;3.03;;;2.53;;
61806;SDS011;47726;52.766;6.606;2023-02-28T12:52:07;4.38;;;2.85;;
61806;SDS011;47726;52.766;6.606;2023-02-28T13:00:04;3.97;;;2.70;;
61806;SDS011;47726;52.766;6.606;2023-02-28T13:05:14;3.85;;;2.60;;
61806;SDS011;47726;52.766;6.606;2023-02-28T13:10:37;6.18;;;2.90;;
61806;SDS011;47726;52.766;6.606;2023-02-28T13:13:20;3.58;;;2.80;;
61806;SDS011;47726;52.766;6.606;2023-02-28T13:15:57;3.58;;;2.65;;
61806;SDS011;47726;52.766;6.606;2023-02-28T13:18:30;5.00;;;2.97;;
61806;SDS011;47726;52.766;6.606;2023-02-28T13:20:58;4.07;;;3.03;;
61806;SDS011;47726;52.766;6.606;2023-02-28T13:26:16;3.30;;;2.72;;
61806;SDS011;47726;52.766;6.606;2023-02-28T13:31:13;4.50;;;3.00;;
61806;SDS011;47726;52.766;6.606;2023-02-28T13:38:54;3.75;;;2.78;;
61806;SDS011;47726;52.766;6.606;2023-02-28T13:46:36;4.40;;;3.13;;
61806;SDS011;47726;52.766;6.606;2023-02-28T14:05:47;4.45;;;3.40;;
61806;SDS011;47726;52.766;6.606;2023-02-28T14:08:51;5.07;;;3.65;;
61806;SDS011;47726;52.766;6.606;2023-02-28T14:11:42;4.70;;;3.40;;
61806;SDS011;47726;52.766;6.606;2023-02-28T14:14:09;5.40;;;3.50;;
61806;SDS011;47726;52.766;6.606;2023-02-28T14:17:00;5.10;;;3.40;;
61806;SDS011;47726;52.766;6.606;2023-02-28T14:19:29;4.07;;;3.30;;
61806;SDS011;47726;52.766;6.606;2023-02-28T14:25:09;5.57;;;3.35;;
61806;SDS011;47726;52.766;6.606;2023-02-28T14:30:51;5.35;;;3.47;;
61806;SDS011;47726;52.766;6.606;2023-02-28T14:36:03;6.40;;;3.47;;
61806;SDS011;47726;52.766;6.606;2023-02-28T14:38:41;4.25;;;3.10;;
61806;SDS011;47726;52.766;6.606;2023-02-28T14:41:13;4.53;;;3.30;;
61806;SDS011;47726;52.766;6.606;2023-02-28T14:43:55;5.78;;;3.50;;
61806;SDS011;47726;52.766;6.606;2023-02-28T14:46:56;4.32;;;3.10;;
61806;SDS011;47726;52.766;6.606;2023-02-28T14:51:47;4.43;;;3.15;;
61806;SDS011;47726;52.766;6.606;2023-02-28T14:54:15;4.63;;;3.22;;
61806;SDS011;47726;52.766;6.606;2023-02-28T14:56:43;3.53;;;3.13;;
61806;SDS011;47726;52.766;6.606;2023-02-28T14:59:30;5.53;;;3.13;;
61806;SDS011;47726;52.766;6.606;2023-02-28T15:02:18;4.03;;;3.00;;
61806;SDS011;47726;52.766;6.606;2023-02-28T15:04:53;4.93;;;3.08;;
61806;SDS011;47726;52.766;6.606;2023-02-28T15:07:20;4.63;;;3.03;;
61806;SDS011;47726;52.766;6.606;2023-02-28T15:10:06;4.35;;;3.15;;
61806;SDS011;47726;52.766;6.606;2023-02-28T15:12:41;5.28;;;3.28;;
61806;SDS011;47726;52.766;6.606;2023-02-28T15:15:17;4.68;;;3.20;;
61806;SDS011;47726;52.766;6.606;2023-02-28T15:17:49;5.07;;;3.03;;
61806;SDS011;47726;52.766;6.606;2023-02-28T15:20:18;4.88;;;3.25;;
61806;SDS011;47726;52.766;6.606;2023-02-28T15:22:44;5.15;;;3.28;;
61806;SDS011;47726;52.766;6.606;2023-02-28T15:25:15;4.63;;;3.10;;
61806;SDS011;47726;52.766;6.606;2023-02-28T15:27:47;5.10;;;3.58;;
61806;SDS011;47726;52.766;6.606;2023-02-28T15:30:18;4.95;;;3.38;;
61806;SDS011;47726;52.766;6.606;2023-02-28T15:32:44;5.45;;;3.50;;
61806;SDS011;47726;52.766;6.606;2023-02-28T15:37:57;5.35;;;3.13;;
61806;SDS011;47726;52.766;6.606;2023-02-28T15:40:28;4.28;;;3.03;;
61806;SDS011;47726;52.766;6.606;2023-02-28T15:45:48;5.35;;;3.33;;
61806;SDS011;47726;52.766;6.606;2023-02-28T15:48:21;4.03;;;3.17;;
61806;SDS011;47726;52.766;6.606;2023-02-28T15:50:53;4.53;;;3.67;;
61806;SDS011;47726;52.766;6.606;2023-02-28T15:54:04;4.85;;;3.47;;
61806;SDS011;47726;52.766;6.606;2023-02-28T15:56:24;6.40;;;3.60;;
61806;SDS011;47726;52.766;6.606;2023-02-28T15:59:13;4.57;;;3.60;;
61806;SDS011;47726;52.766;6.606;2023-02-28T16:01:41;5.50;;;3.80;;
61806;SDS011;47726;52.766;6.606;2023-02-28T16:04:14;7.43;;;4.40;;
61806;SDS011;47726;52.766;6.606;2023-02-28T16:06:45;7.00;;;4.60;;
61806;SDS011;47726;52.766;6.606;2023-02-28T16:09:25;7.95;;;4.85;;
61806;SDS011;47726;52.766;6.606;2023-02-28T16:11:52;8.80;;;4.85;;
61806;SDS011;47726;52.766;6.606;2023-02-28T16:14:20;6.80;;;4.15;;
61806;SDS011;47726;52.766;6.606;2023-02-28T16:16:51;6.47;;;4.35;;
61806;SDS011;47726;52.766;6.606;2023-02-28T16:19:22;6.57;;;3.85;;
61806;SDS011;47726;52.766;6.606;2023-02-28T16:21:48;5.18;;;3.90;;
61806;SDS011;47726;52.766;6.606;2023-02-28T16:24:14;5.70;;;3.60;;
61806;SDS011;47726;52.766;6.606;2023-02-28T16:26:40;5.43;;;3.53;;
61806;SDS011;47726;52.766;6.606;2023-02-28T16:29:08;5.88;;;4.00;;
61806;SDS011;47726;52.766;6.606;2023-02-28T16:31:38;6.20;;;3.90;;
61806;SDS011;47726;52.766;6.606;2023-02-28T16:34:04;6.40;;;3.90;;
61806;SDS011;47726;52.766;6.606;2023-02-28T16:36:30;6.53;;;4.20;;
61806;SDS011;47726;52.766;6.606;2023-02-28T16:38:56;6.03;;;4.05;;
61806;SDS011;47726;52.766;6.606;2023-02-28T16:41:22;7.15;;;4.28;;
61806;SDS011;47726;52.766;6.606;2023-02-28T16:43:51;6.13;;;4.13;;
61806;SDS011;47726;52.766;6.606;2023-02-28T16:46:23;7.97;;;4.72;;
61806;SDS011;47726;52.766;6.606;2023-02-28T16:48:50;8.20;;;4.72;;
61806;SDS011;47726;52.766;6.606;2023-02-28T16:51:16;5.95;;;4.70;;
61806;SDS011;47726;52.766;6.606;2023-02-28T16:53:42;6.75;;;5.13;;
61806;SDS011;47726;52.766;6.606;2023-02-28T16:56:12;8.65;;;5.35;;
61806;SDS011;47726;52.766;6.606;2023-02-28T16:58:42;9.02;;;6.47;;
61806;SDS011;47726;52.766;6.606;2023-02-28T17:01:08;9.68;;;6.47;;
61806;SDS011;47726;52.766;6.606;2023-02-28T17:03:33;10.98;;;8.00;;
61806;SDS011;47726;52.766;6.606;2023-02-28T17:06:01;12.52;;;7.38;;
61806;SDS011;47726;52.766;6.606;2023-02-28T17:08:27;9.77;;;6.97;;
61806;SDS011;47726;52.766;6.606;2023-02-28T17:10:54;8.07;;;6.00;;
61806;SDS011;47726;52.766;6.606;2023-02-28T17:13:20;8.70;;;5.60;;
61806;SDS011;47726;52.766;6.606;2023-02-28T17:15:46;7.22;;;5.47;;